Time;durP1;ratioP1;P1;durP2;ratioP2;P2;SDS_P1;SDS_P2;PMS_P1;PMS_P2;Temp;Humidity;BMP_temperature;BMP_pressure;BME280_temperature;BME280_humidity;BME280_pressure;Samples;Min_cycle;Max_cycle;Signal;HPM_P1;HPM_P2
2022/07/16 00:03:17;;;;;;;4.60;2.03;;;;;;;15.09;69.34;102000.25;5022985;28;20294;-96
2022/07/16 00:05:43;;;;;;;4.70;1.70;;;;;;;15.21;68.72;102002.75;5052199;28;20417;-96
2022/07/16 00:08:08;;;;;;;5.67;1.90;;;;;;;15.31;67.85;101992.00;5054806;28;20028;-96
2022/07/16 00:10:34;;;;;;;2.93;1.70;;;;;;;15.32;67.54;101993.63;5057249;28;20024;-96
2022/07/16 00:13:02;;;;;;;2.92;1.80;;;;;;;15.36;68.02;101993.91;5042585;28;20051;-96
2022/07/16 00:15:28;;;;;;;5.30;1.75;;;;;;;15.31;68.21;101992.00;5048440;28;20033;-96
2022/07/16 00:19:15;;;;;;;3.60;1.73;;;;;;;15.33;67.94;101995.25;5055417;28;20040;-95
2022/07/16 00:20:39;;;;;;;3.75;1.58;;;;;;;15.29;67.87;101996.84;5056822;28;20045;-94
2022/07/16 00:23:06;;;;;;;4.10;1.87;;;;;;;15.29;67.53;102008.47;5052555;28;20009;-95
2022/07/16 00:25:32;;;;;;;6.45;1.92;;;;;;;15.16;68.44;102008.91;5048242;28;20028;-95
2022/07/16 00:27:57;;;;;;;6.53;1.88;;;;;;;15.15;68.29;102010.00;5041638;28;20025;-94
2022/07/16 00:30:23;;;;;;;4.20;1.57;;;;;;;15.09;68.55;102008.34;5046862;28;20049;-96
2022/07/16 00:32:48;;;;;;;3.90;1.67;;;;;;;15.06;68.76;102000.75;5067782;28;20384;-96
2022/07/16 00:35:13;;;;;;;3.27;1.90;;;;;;;15.00;69.50;102002.59;5074304;28;20037;-96
2022/07/16 00:37:38;;;;;;;3.57;1.63;;;;;;;14.98;69.88;102013.66;5067619;28;20009;-96
2022/07/16 00:40:05;;;;;;;3.33;1.80;;;;;;;14.92;69.38;102005.78;5039432;28;20033;-96
2022/07/16 00:42:30;;;;;;;3.13;1.60;;;;;;;14.93;69.77;102010.09;5051442;28;20184;-96
2022/07/16 00:44:55;;;;;;;6.73;1.80;;;;;;;14.97;69.35;102003.91;5037069;28;20120;-96
2022/07/16 00:47:20;;;;;;;4.40;2.13;;;;;;;15.07;68.98;102007.78;5033283;28;20032;-96
2022/07/16 00:49:46;;;;;;;5.10;1.90;;;;;;;15.19;68.26;102011.09;5031892;28;20117;-96
2022/07/16 00:52:11;;;;;;;4.33;2.13;;;;;;;15.25;68.48;101993.84;5031213;28;20037;-96
2022/07/16 00:54:36;;;;;;;3.93;1.60;;;;;;;15.34;67.81;102001.47;5044049;28;20029;-96
2022/07/16 00:57:02;;;;;;;2.87;1.70;;;;;;;15.32;68.12;101992.81;5051983;28;20025;-96
2022/07/16 00:59:27;;;;;;;5.17;1.77;;;;;;;15.38;67.96;101997.16;5042658;28;20495;-96
2022/07/16 01:01:53;;;;;;;3.67;1.90;;;;;;;15.49;67.67;102003.44;5031287;28;20033;-96
2022/07/16 01:04:18;;;;;;;6.80;2.00;;;;;;;15.51;67.14;102002.13;5031034;28;20032;-96
2022/07/16 01:06:45;;;;;;;4.10;1.90;;;;;;;15.64;67.01;101997.31;5034843;28;20037;-96
2022/07/16 01:09:11;;;;;;;3.30;2.00;;;;;;;15.66;67.30;102000.56;5037712;28;20021;-95
2022/07/16 01:11:38;;;;;;;4.22;1.95;;;;;;;15.70;66.59;102004.38;5044653;28;20025;-96
2022/07/16 01:14:03;;;;;;;7.35;2.03;;;;;;;15.68;66.42;102001.09;5051174;28;20101;-95
2022/07/16 01:16:29;;;;;;;7.43;2.20;;;;;;;15.67;66.77;101994.88;5041938;28;20041;-96
2022/07/16 01:18:54;;;;;;;5.77;2.10;;;;;;;15.67;66.26;101994.06;5038398;28;20028;-96
2022/07/16 01:21:19;;;;;;;4.67;1.90;;;;;;;15.66;67.24;101990.53;5037216;28;20084;-96
2022/07/16 01:23:47;;;;;;;3.80;1.80;;;;;;;15.58;67.30;101981.06;5043887;28;20049;-96
2022/07/16 01:26:13;;;;;;;4.50;2.00;;;;;;;15.64;67.13;101990.00;5049563;28;20279;-96
2022/07/16 01:28:38;;;;;;;4.90;2.05;;;;;;;15.59;67.00;101976.50;5051950;28;20222;-96
2022/07/16 01:31:04;;;;;;;4.87;1.90;;;;;;;15.52;67.22;101979.41;5054253;28;20076;-96
2022/07/16 01:33:35;;;;;;;4.75;2.08;;;;;;;15.48;66.52;101972.09;5054441;28;20032;-95
2022/07/16 01:36:06;;;;;;;6.23;2.20;;;;;;;15.41;66.92;101985.84;5054550;28;20029;-96
2022/07/16 01:38:31;;;;;;;5.17;2.07;;;;;;;15.37;67.42;101984.72;5045629;28;20303;-96
2022/07/16 01:40:57;;;;;;;4.47;1.88;;;;;;;15.33;67.33;101987.16;5035045;28;20305;-96
2022/07/16 01:43:26;;;;;;;6.53;1.98;;;;;;;15.28;67.58;101997.91;5029015;28;20413;-96
2022/07/16 01:45:53;;;;;;;2.80;2.05;;;;;;;15.25;67.46;101996.56;5032098;28;20045;-96
2022/07/16 01:48:20;;;;;;;5.70;2.30;;;;;;;15.25;67.91;101991.16;5038543;28;20025;-96
2022/07/16 01:50:45;;;;;;;6.57;2.27;;;;;;;15.27;67.76;101996.28;5051406;28;20280;-96
2022/07/16 01:53:12;;;;;;;4.63;2.10;;;;;;;15.16;68.13;101991.91;5031362;28;20026;-96
2022/07/16 01:55:38;;;;;;;2.92;1.77;;;;;;;15.18;68.16;101989.78;5048696;28;20052;-96
2022/07/16 01:58:05;;;;;;;4.20;1.90;;;;;;;15.16;67.84;101987.31;5048734;28;20032;-96
2022/07/16 02:00:31;;;;;;;4.00;1.97;;;;;;;15.13;68.18;101994.06;5031640;28;20326;-96
2022/07/16 02:02:57;;;;;;;2.70;1.88;;;;;;;15.11;67.99;102000.78;5052242;28;20045;-96
2022/07/16 02:05:23;;;;;;;5.05;2.00;;;;;;;15.08;68.67;101998.59;5051243;28;20079;-96
2022/07/16 02:07:49;;;;;;;3.88;1.83;;;;;;;15.04;68.58;101997.50;5037467;28;20029;-96
2022/07/16 02:10:14;;;;;;;5.87;2.43;;;;;;;14.94;68.30;101993.66;5024467;28;20025;-96
2022/07/16 02:12:40;;;;;;;2.42;1.73;;;;;;;14.94;68.29;101984.75;5030677;28;20025;-96
2022/07/16 02:15:06;;;;;;;3.77;2.30;;;;;;;14.89;69.38;101988.22;5029076;28;20459;-95
2022/07/16 02:17:31;;;;;;;6.60;2.00;;;;;;;14.94;68.69;101988.28;5035024;28;20031;-96
2022/07/16 02:19:57;;;;;;;4.73;2.17;;;;;;;14.97;68.42;101976.13;5038756;28;20053;-96
2022/07/16 02:22:22;;;;;;;4.43;2.17;;;;;;;15.06;68.00;101990.78;5031270;28;20370;-96
2022/07/16 02:24:48;;;;;;;3.55;2.38;;;;;;;15.07;68.66;101972.69;5012152;28;20497;-95
2022/07/16 02:27:13;;;;;;;4.67;2.30;;;;;;;15.12;68.51;101973.53;5031645;28;20045;-96
2022/07/16 02:29:38;;;;;;;4.77;2.20;;;;;;;15.15;68.54;101977.63;5045395;28;20026;-96
2022/07/16 02:32:04;;;;;;;5.28;2.30;;;;;;;15.17;68.51;101975.44;5034341;28;20036;-96
2022/07/16 02:34:29;;;;;;;4.10;2.20;;;;;;;15.22;68.11;101980.88;5040561;28;20096;-96
2022/07/16 02:36:55;;;;;;;5.57;2.80;;;;;;;15.25;68.53;101988.47;5055062;28;20038;-96
2022/07/16 02:39:20;;;;;;;3.80;2.50;;;;;;;15.25;68.53;101985.75;5011664;28;20025;-95
2022/07/16 02:41:45;;;;;;;4.18;2.58;;;;;;;15.23;67.96;101973.59;5027322;28;20311;-96
2022/07/16 02:44:11;;;;;;;3.87;2.30;;;;;;;15.33;68.07;101978.25;5025401;28;20105;-95
2022/07/16 02:46:36;;;;;;;3.70;2.50;;;;;;;15.32;68.06;101971.22;5019036;28;20085;-96
2022/07/16 02:49:01;;;;;;;2.73;2.50;;;;;;;15.29;68.64;101967.13;5023500;28;20053;-95
2022/07/16 02:51:26;;;;;;;6.47;2.80;;;;;;;15.34;67.79;101971.78;5036261;28;20064;-96
2022/07/16 02:53:52;;;;;;;4.03;2.60;;;;;;;15.31;68.03;101975.00;5044082;28;20302;-95
2022/07/16 02:56:17;;;;;;;5.80;2.90;;;;;;;15.32;67.57;101971.22;5055019;28;20104;-96
2022/07/16 02:58:43;;;;;;;6.87;2.90;;;;;;;15.29;67.56;101981.47;5040135;28;20033;-96
2022/07/16 03:01:08;;;;;;;5.93;3.40;;;;;;;15.21;67.29;101976.56;5030479;28;20040;-96
2022/07/16 03:03:33;;;;;;;8.13;3.27;;;;;;;15.20;67.31;101974.13;5053622;28;20052;-96
2022/07/16 03:05:59;;;;;;;6.93;3.20;;;;;;;15.20;67.66;101974.13;5055342;28;20025;-95
2022/07/16 03:08:24;;;;;;;5.57;3.20;;;;;;;15.16;67.80;101964.91;5046154;28;20057;-96
2022/07/16 03:10:49;;;;;;;5.57;3.30;;;;;;;15.19;68.07;101967.09;5055198;28;20057;-96
2022/07/16 03:13:15;;;;;;;6.40;3.60;;;;;;;15.18;67.84;101979.75;5042119;28;20021;-96
2022/07/16 03:15:40;;;;;;;9.57;3.55;;;;;;;15.21;68.29;101973.84;5053770;28;20017;-96
2022/07/16 03:18:06;;;;;;;8.07;3.30;;;;;;;15.22;67.56;101983.56;5052610;28;20419;-96
2022/07/16 03:20:31;;;;;;;5.70;3.30;;;;;;;15.26;68.04;101981.16;5039065;28;20096;-96
2022/07/16 03:22:57;;;;;;;7.07;3.17;;;;;;;15.27;67.88;101985.50;5053821;28;20033;-96
2022/07/16 03:25:26;;;;;;;7.30;3.80;;;;;;;15.28;67.87;101985.25;5057079;28;20032;-96
2022/07/16 03:27:52;;;;;;;4.28;3.45;;;;;;;15.23;67.72;101974.41;5038417;28;20108;-90
2022/07/16 03:30:18;;;;;;;10.10;4.00;;;;;;;15.25;67.92;101980.38;5032887;28;20516;-88
2022/07/16 03:32:43;;;;;;;6.70;3.50;;;;;;;15.26;67.99;101983.84;5028228;28;20041;-91
2022/07/16 03:35:10;;;;;;;7.43;3.87;;;;;;;15.22;68.37;101983.56;5051342;28;20064;-92
2022/07/16 03:40:20;;;;;;;8.13;4.20;;;;;;;15.27;68.08;101997.13;5029396;28;20468;-89
2022/07/16 03:42:45;;;;;;;8.53;3.90;;;;;;;15.21;68.45;101987.34;5022450;28;20108;-88
2022/07/16 03:45:10;;;;;;;5.93;4.05;;;;;;;15.20;69.07;101999.22;5030604;28;20108;-88
2022/07/16 03:47:36;;;;;;;7.70;3.90;;;;;;;15.16;68.29;102008.91;5026841;28;20097;-88
2022/07/16 03:50:01;;;;;;;6.60;4.63;;;;;;;15.19;68.78;102002.19;5030653;28;20116;-88
2022/07/16 03:52:26;;;;;;;5.73;4.37;;;;;;;15.20;69.17;102001.91;5030862;28;20026;-88
2022/07/16 03:54:52;;;;;;;8.33;4.03;;;;;;;15.16;69.32;102005.41;5041715;28;20117;-88
2022/07/16 03:57:17;;;;;;;11.83;4.10;;;;;;;15.19;69.23;102013.00;5049641;28;20036;-88
2022/07/16 03:59:42;;;;;;;9.50;4.60;;;;;;;15.17;69.52;102017.84;5020014;28;20442;-89
2022/07/16 04:02:07;;;;;;;11.98;4.53;;;;;;;15.16;69.49;102008.91;5029738;28;20022;-88
2022/07/16 04:04:33;;;;;;;11.07;4.93;;;;;;;15.21;69.38;102018.94;5029405;28;20516;-88
2022/07/16 04:06:58;;;;;;;7.57;4.63;;;;;;;15.21;69.81;102022.44;5027870;28;20021;-88
2022/07/16 04:09:24;;;;;;;10.15;4.93;;;;;;;15.21;69.92;102025.16;5021729;28;20041;-89
2022/07/16 04:11:49;;;;;;;9.53;5.10;;;;;;;15.16;70.43;102027.00;5030224;28;20113;-88
2022/07/16 04:14:15;;;;;;;5.67;4.30;;;;;;;15.20;70.23;102028.13;5028387;28;20444;-88
2022/07/16 04:16:41;;;;;;;14.10;4.87;;;;;;;15.23;70.60;102027.59;5030004;28;20042;-88
2022/07/16 04:19:06;;;;;;;7.13;4.60;;;;;;;15.26;70.32;102030.59;5028151;28;20075;-91
2022/07/16 04:21:32;;;;;;;6.90;4.80;;;;;;;15.33;70.77;102032.25;5028783;28;20025;-89
2022/07/16 04:23:57;;;;;;;6.80;4.77;;;;;;;15.37;71.27;102022.53;5030158;28;20030;-90
2022/07/16 04:26:22;;;;;;;11.67;5.43;;;;;;;15.50;70.71;102030.19;5030783;28;20326;-91
2022/07/16 04:28:47;;;;;;;10.70;4.93;;;;;;;15.63;70.98;102038.91;5024194;28;20021;-89
2022/07/16 04:31:13;;;;;;;8.48;4.88;;;;;;;15.68;70.62;102033.53;5030753;28;20548;-90
2022/07/16 04:33:38;;;;;;;8.07;5.10;;;;;;;15.70;71.05;102042.19;5030267;28;20037;-91
2022/07/16 04:36:16;;;;;;;10.43;5.00;;;;;;;15.65;70.51;102036.75;5026188;28;20041;-92
2022/07/16 04:39:10;;;;;;;11.60;5.28;;;;;;;15.65;70.97;102042.16;5017454;28;20153;-91
2022/07/16 04:47:25;;;;;;;7.88;5.32;;;;;;;15.27;75.17;102032.22;5011331;28;20037;-92
2022/07/16 04:49:50;;;;;;;7.87;5.03;;;;;;;15.31;75.12;102045.22;5015992;23;20085;-93
2022/07/16 04:52:24;;;;;;;9.97;5.53;;;;;;;15.39;75.58;102053.63;5018560;28;20339;-95
2022/07/16 05:02:56;;;;;;;11.30;5.80;;;;;;;16.33;74.81;102035.94;5031710;28;20291;-88
2022/07/16 05:04:43;;;;;;;6.63;4.78;;;;;;;17.93;70.50;102060.16;5030257;28;20033;-89
2022/07/16 05:07:09;;;;;;;8.48;4.85;;;;;;;19.03;66.90;102066.56;5032932;28;20033;-89
2022/07/16 05:09:34;;;;;;;7.53;4.10;;;;;;;19.91;64.47;102069.22;5029187;28;20080;-88
2022/07/16 05:15:46;;;;;;;6.53;3.30;;;;;;;21.22;60.31;102058.78;4941833;28;20070;-88
2022/07/16 05:18:12;;;;;;;8.43;3.53;;;;;;;21.24;59.77;102078.38;4950799;28;20134;-88
2022/07/16 05:20:38;;;;;;;9.40;3.40;;;;;;;21.11;60.26;102081.91;4973385;28;20254;-88
2022/07/16 05:23:03;;;;;;;6.23;3.63;;;;;;;21.17;60.03;102086.97;5005200;28;20685;-88
2022/07/16 05:25:29;;;;;;;8.10;3.53;;;;;;;21.45;59.52;102088.91;5010262;28;20034;-89
2022/07/16 05:28:01;;;;;;;6.38;3.17;;;;;;;21.61;59.23;102084.81;5006084;28;20034;-95
2022/07/16 05:30:27;;;;;;;5.55;3.25;;;;;;;21.71;59.26;102089.25;4987425;28;20033;-96
2022/07/16 05:32:59;;;;;;;6.90;3.25;;;;;;;21.96;58.72;102089.84;5073666;23;20145;-92
2022/07/16 05:35:31;;;;;;;6.00;3.00;;;;;;;22.17;58.01;102082.03;4996113;28;20026;-93
2022/07/16 05:38:31;;;;;;;6.93;3.13;;;;;;;22.44;57.66;102098.69;4989909;28;20109;-94
2022/07/16 05:44:42;;;;;;;7.50;3.40;;;;;;;22.46;58.09;102102.69;5374106;23;20300;-96
2022/07/16 05:47:55;;;;;;;4.60;2.70;;;;;;;22.43;58.24;102094.31;5051979;28;20069;-96
2022/07/16 05:50:21;;;;;;;5.35;2.50;;;;;;;22.16;57.87;102094.06;5007765;28;20404;-95
2022/07/16 05:52:59;;;;;;;3.63;2.45;;;;;;;21.94;59.27;102092.88;5154036;22;20057;-96
2022/07/16 05:59:30;;;;;;;4.73;2.30;;;;;;;21.31;61.01;102103.34;5012141;28;20287;-96
2022/07/16 06:01:58;;;;;;;4.10;2.20;;;;;;;20.72;62.52;102087.41;4998483;28;20417;-94
2022/07/16 06:04:51;;;;;;;6.43;2.20;;;;;;;20.34;63.37;102103.75;4997004;28;20036;-93
2022/07/16 06:10:16;;;;;;;5.75;2.10;;;;;;;19.96;64.91;102122.72;5014592;28;20104;-95
2022/07/16 06:13:06;;;;;;;;;;;;;;;;;;;;;
2022/07/16 06:19:21;;;;;;;4.50;1.80;;;;;;;19.49;67.24;102131.38;5015443;28;20517;-96
2022/07/16 06:21:46;;;;;;;5.35;2.20;;;;;;;19.43;67.00;102132.50;5000671;28;20507;-96
2022/07/16 06:24:40;;;;;;;5.90;2.20;;;;;;;19.33;67.45;102149.72;5016052;28;20061;-93
2022/07/16 06:27:05;;;;;;;3.92;1.58;;;;;;;19.08;68.63;102144.50;5035091;23;20042;-94
2022/07/16 06:29:30;;;;;;;4.37;1.60;;;;;;;18.79;69.23;102132.47;5012179;28;20537;-94
2022/07/16 06:31:57;;;;;;;6.80;1.97;;;;;;;18.92;69.43;102142.69;5004814;28;20482;-93
2022/07/16 06:34:34;;;;;;;3.45;1.90;;;;;;;18.87;68.14;102142.72;5037820;28;20029;-94
2022/07/16 06:37:18;;;;;;;3.22;1.30;;;;;;;18.86;67.78;102138.38;5390403;23;20053;-93
2022/07/16 06:39:43;;;;;;;2.85;1.42;;;;;;;18.96;68.08;102145.66;5007840;28;20064;-94
2022/07/16 06:42:09;;;;;;;4.73;1.90;;;;;;;19.02;67.11;102130.13;5199781;23;20493;-92
2022/07/16 06:45:27;;;;;;;5.07;1.50;;;;;;;19.15;66.74;102155.84;5012779;28;20450;-96
2022/07/16 06:48:29;;;;;;;2.63;1.55;;;;;;;19.10;66.20;102159.41;4995255;28;20081;-96
2022/07/16 06:51:13;;;;;;;3.35;1.40;;;;;;;18.79;66.87;102154.19;4995270;28;20125;-95
2022/07/16 06:53:50;;;;;;;4.75;1.50;;;;;;;18.82;66.56;102156.31;4975627;28;20419;-96
2022/07/16 06:56:46;;;;;;;4.43;1.45;;;;;;;18.89;66.53;102151.38;4978083;28;20687;-95
2022/07/16 06:59:17;;;;;;;6.80;1.58;;;;;;;18.82;65.49;102148.16;4994260;28;20064;-94
2022/07/16 07:01:54;;;;;;;1.90;1.40;;;;;;;18.88;65.20;102173.41;5022929;28;20042;-94
2022/07/16 07:04:26;;;;;;;3.00;1.42;;;;;;;18.90;64.94;102161.16;4998064;28;20101;-96
2022/07/16 07:07:03;;;;;;;4.70;1.30;;;;;;;18.78;63.55;102160.69;4993980;28;20027;-93
2022/07/16 07:10:00;;;;;;;4.37;1.57;;;;;;;18.80;63.10;102165.84;4989946;28;20365;-93
2022/07/16 07:12:40;;;;;;;3.63;1.10;;;;;;;18.82;61.28;102191.59;4944616;29;20039;-95
2022/07/16 07:15:06;;;;;;;3.17;1.40;;;;;;;18.92;62.21;102198.88;4951694;28;20043;-94
2022/07/16 07:18:15;;;;;;;3.80;1.05;;;;;;;19.16;61.42;102201.75;4953077;28;20475;-94
2022/07/16 07:20:40;;;;;;;5.60;1.10;;;;;;;19.17;59.93;102187.06;4971800;28;20034;-93
2022/07/16 07:23:23;;;;;;;4.67;1.23;;;;;;;19.31;59.41;102186.44;4970055;28;20070;-94
2022/07/16 07:25:51;;;;;;;3.88;1.20;;;;;;;19.40;59.33;102200.22;4931424;29;20039;-95
2022/07/16 07:29:07;;;;;;;2.85;1.10;;;;;;;19.44;57.87;102199.34;4962241;28;20039;-94
2022/07/16 07:32:13;;;;;;;2.67;1.05;;;;;;;19.31;55.17;102186.44;4949294;29;20125;-94
2022/07/16 07:34:38;;;;;;;5.03;1.48;;;;;;;19.23;56.36;102196.00;4932806;29;20072;-95
2022/07/16 07:37:50;;;;;;;4.37;1.40;;;;;;;19.45;56.44;102206.41;4934602;29;20584;-96
2022/07/16 07:40:22;;;;;;;1.98;1.10;;;;;;;19.41;56.54;102190.97;4902045;29;20461;-95
2022/07/16 07:43:00;;;;;;;;;;;;;;;;;;;;;
2022/07/16 07:45:32;;;;;;;3.53;1.25;;;;;;;19.59;56.17;102203.03;4939778;28;20053;-95
2022/07/16 07:47:59;;;;;;;1.98;1.05;;;;;;;19.71;55.92;102213.53;4997251;28;20034;-96
2022/07/16 07:50:43;;;;;;;6.43;1.10;;;;;;;19.81;55.47;102216.16;4997490;28;20037;-94
2022/07/16 07:53:11;;;;;;;3.63;1.17;;;;;;;19.76;55.65;102214.28;5001646;28;20293;-95
2022/07/16 07:55:52;;;;;;;2.78;1.13;;;;;;;19.90;56.03;102217.19;5011615;28;20088;-94
2022/07/16 07:58:19;;;;;;;4.63;1.20;;;;;;;20.09;55.66;102224.59;5172494;23;20037;-94
2022/07/16 08:00:44;;;;;;;5.53;1.30;;;;;;;20.19;54.85;102235.38;5025660;28;20025;-93
2022/07/16 08:03:09;;;;;;;3.17;1.27;;;;;;;20.09;54.13;102227.31;5032299;28;20152;-93
2022/07/16 08:05:35;;;;;;;2.97;1.10;;;;;;;19.88;54.91;102226.75;5060105;28;20808;-92
2022/07/16 08:08:00;;;;;;;5.57;1.10;;;;;;;19.99;54.24;102239.13;5058650;28;20021;-94
2022/07/16 08:10:25;;;;;;;2.70;1.10;;;;;;;19.98;53.13;102234.78;5063527;28;20025;-92
2022/07/16 08:12:51;;;;;;;3.87;1.50;;;;;;;19.92;53.98;102239.47;5062726;28;20031;-94
2022/07/16 08:15:16;;;;;;;5.27;1.20;;;;;;;19.84;54.05;102242.78;5064349;28;20025;-92
2022/07/16 08:17:42;;;;;;;3.75;1.20;;;;;;;19.81;53.82;102235.22;5059979;28;20024;-93
2022/07/16 08:20:10;;;;;;;2.33;1.27;;;;;;;19.82;54.77;102247.69;5053456;28;20041;-94
2022/07/16 08:22:36;;;;;;;3.03;1.20;;;;;;;19.93;55.19;102249.25;5052152;28;20107;-93
2022/07/16 08:27:47;;;;;;;3.00;1.10;;;;;;;20.25;53.92;102252.47;5040330;28;20122;-94
2022/07/16 08:30:22;;;;;;;2.83;1.10;;;;;;;20.40;54.18;102260.47;5051077;28;20060;-93
2022/07/16 08:32:57;;;;;;;5.78;1.30;;;;;;;20.62;53.48;102258.28;5051657;28;20387;-94
2022/07/16 08:35:23;;;;;;;2.35;1.10;;;;;;;20.84;52.99;102249.59;5041293;28;20025;-96
2022/07/16 08:38:24;;;;;;;1.63;0.93;;;;;;;21.10;51.74;102260.94;5056345;28;20012;-95
2022/07/16 08:41:18;;;;;;;11.30;1.50;;;;;;;21.27;51.47;102260.41;4956210;29;20220;-92
2022/07/16 08:43:51;;;;;;;5.68;1.02;;;;;;;21.51;49.86;102270.41;4935161;28;20499;-92
2022/07/16 08:46:22;;;;;;;3.88;1.40;;;;;;;21.32;48.53;102278.59;5013640;28;20033;-92
2022/07/16 08:48:54;;;;;;;6.72;1.30;;;;;;;21.27;49.96;102274.03;5032108;28;20112;-88
2022/07/16 08:54:44;;;;;;;6.03;1.20;;;;;;;21.46;49.39;102267.75;4995622;28;20173;-95
2022/07/16 08:57:10;;;;;;;7.03;1.27;;;;;;;21.99;49.31;102284.91;4990848;28;20273;-90
2022/07/16 08:59:36;;;;;;;5.15;1.40;;;;;;;22.20;48.51;102269.78;4975948;28;20042;-93
2022/07/16 09:02:01;;;;;;;5.17;1.20;;;;;;;22.48;46.61;102282.66;4955654;28;20027;-95
2022/07/16 09:04:27;;;;;;;4.87;1.40;;;;;;;22.59;46.72;102291.44;4988756;28;20278;-91
2022/07/16 09:06:52;;;;;;;2.47;1.13;;;;;;;22.39;45.96;102296.16;5047651;28;20060;-93
2022/07/16 09:09:18;;;;;;;4.90;1.47;;;;;;;21.75;47.23;102302.22;5050455;28;20100;-93
2022/07/16 09:11:44;;;;;;;3.00;1.10;;;;;;;21.23;47.57;102300.25;5050734;28;20059;-96
2022/07/16 09:14:15;;;;;;;5.57;1.55;;;;;;;21.53;47.18;102297.38;5054994;28;20067;-95
2022/07/16 09:16:53;;;;;;;2.63;1.13;;;;;;;21.96;45.43;102305.44;5039003;28;20040;-96
2022/07/16 09:19:32;;;;;;;4.30;1.55;;;;;;;22.23;45.53;102295.66;5282741;22;20043;-96
2022/07/16 09:22:09;;;;;;;2.40;1.20;;;;;;;21.98;45.66;102305.94;5010846;28;20033;-96
2022/07/16 09:24:47;;;;;;;3.40;1.17;;;;;;;21.85;45.35;102302.06;5032649;23;20318;-96
2022/07/16 09:27:22;;;;;;;4.22;1.20;;;;;;;22.10;44.98;102302.69;4999195;28;20078;-91
2022/07/16 09:29:52;;;;;;;3.13;1.02;;;;;;;22.01;45.77;102310.78;4993388;28;20019;-92
2022/07/16 09:32:31;;;;;;;2.13;1.40;;;;;;;21.72;46.52;102308.28;5221744;23;20050;-95
2022/07/16 09:35:04;;;;;;;3.50;1.40;;;;;;;21.73;46.20;102304.44;5512171;22;20039;-94
2022/07/16 09:37:56;;;;;;;3.38;1.20;;;;;;;21.82;45.69;102310.03;4990638;28;20068;-94
2022/07/16 09:45:44;;;;;;;2.25;1.15;;;;;;;23.11;44.22;102297.41;5069677;23;20401;-96
2022/07/16 09:48:29;;;;;;;3.67;1.37;;;;;;;23.52;42.96;102324.97;5001313;28;20034;-96
2022/07/16 09:53:28;;;;;;;5.15;1.20;;;;;;;23.16;42.18;102317.56;5028306;23;20065;-94
2022/07/16 09:55:58;;;;;;;3.27;1.20;;;;;;;22.80;43.33;102330.06;5015854;28;20084;-92
2022/07/16 09:58:23;;;;;;;3.87;1.17;;;;;;;22.65;44.08;102321.06;5019603;28;20376;-87
2022/07/16 10:00:50;;;;;;;3.33;0.90;;;;;;;22.58;44.05;102325.34;5011165;28;20049;-87
2022/07/16 10:03:16;;;;;;;2.78;1.35;;;;;;;22.39;42.83;102329.72;5010668;28;20030;-88
2022/07/16 10:05:42;;;;;;;3.30;1.20;;;;;;;22.78;42.91;102327.66;5012726;28;20113;-88
2022/07/16 10:08:07;;;;;;;3.38;1.17;;;;;;;23.11;41.87;102332.97;5013673;28;20084;-88
2022/07/16 10:10:32;;;;;;;3.13;1.10;;;;;;;23.35;42.41;102334.66;5013825;28;20037;-90
2022/07/16 10:12:58;;;;;;;2.63;1.20;;;;;;;23.00;42.20;102345.25;5013569;28;20033;-87
2022/07/16 10:15:23;;;;;;;2.83;1.20;;;;;;;22.52;42.73;102330.88;5005814;28;20025;-89
2022/07/16 10:17:49;;;;;;;3.53;1.20;;;;;;;22.21;44.41;102342.38;5011173;28;20112;-88
2022/07/16 10:20:19;;;;;;;3.83;1.05;;;;;;;22.28;44.04;102341.13;5013827;28;20080;-88
2022/07/16 10:22:48;;;;;;;4.30;1.30;;;;;;;22.73;42.92;102338.69;5013130;28;20131;-88
2022/07/16 10:25:35;;;;;;;2.53;0.90;;;;;;;23.19;41.97;102347.81;5013166;28;20064;-88
2022/07/16 10:28:01;;;;;;;4.60;1.50;;;;;;;23.07;41.91;102353.03;5014490;28;20285;-90
2022/07/16 10:30:29;;;;;;;3.63;1.05;;;;;;;22.79;40.46;102362.06;5006623;28;20037;-87
2022/07/16 10:33:02;;;;;;;1.83;1.13;;;;;;;22.68;41.57;102353.25;5013461;28;20033;-88
2022/07/16 10:36:06;;;;;;;4.28;1.15;;;;;;;23.27;42.30;102349.03;5011964;28;20041;-89
2022/07/16 10:38:31;;;;;;;8.80;1.33;;;;;;;23.99;40.11;102358.31;4998149;28;20046;-87
2022/07/16 10:41:07;;;;;;;6.23;1.10;;;;;;;23.92;39.21;102355.16;5006888;28;20300;-88
2022/07/16 10:43:33;;;;;;;4.22;1.25;;;;;;;23.92;39.96;102355.16;5009380;28;20036;-88
2022/07/16 10:46:04;;;;;;;2.10;1.30;;;;;;;23.90;39.14;102354.69;5013154;28;20049;-87
2022/07/16 10:48:49;;;;;;;4.50;1.40;;;;;;;23.75;39.17;102364.88;5008194;28;20795;-88
2022/07/16 10:51:17;;;;;;;2.05;1.23;;;;;;;24.34;38.28;102366.69;4996145;28;20068;-87
2022/07/16 10:54:16;;;;;;;8.85;1.10;;;;;;;24.49;37.83;102370.13;5015739;28;20037;-89
2022/07/16 10:56:44;;;;;;;2.50;1.25;;;;;;;24.58;37.41;102362.78;5013501;28;20081;-88
2022/07/16 10:59:14;;;;;;;2.63;1.00;;;;;;;24.47;37.61;102361.41;5013212;28;20104;-87
2022/07/16 11:01:42;;;;;;;2.20;1.00;;;;;;;24.82;36.91;102361.59;5010752;28;20032;-87
2022/07/16 11:04:09;;;;;;;2.55;1.30;;;;;;;24.90;35.94;102366.28;5001778;28;20026;-87
2022/07/16 11:06:35;;;;;;;4.70;1.27;;;;;;;24.72;35.79;102373.66;4997100;28;20516;-89
2022/07/16 11:09:05;;;;;;;1.70;1.20;;;;;;;25.00;37.23;102369.84;5008487;28;20065;-88
2022/07/16 11:11:35;;;;;;;1.93;1.20;;;;;;;25.23;34.99;102370.53;5012221;28;20422;-88
2022/07/16 11:14:01;;;;;;;3.63;1.40;;;;;;;25.57;35.47;102374.44;5012190;28;20362;-89
2022/07/16 11:16:27;;;;;;;4.93;1.30;;;;;;;25.19;36.60;102370.38;5012899;28;20030;-89
2022/07/16 11:18:53;;;;;;;3.97;1.50;;;;;;;24.56;37.17;102384.19;5012152;28;20037;-90
2022/07/16 11:21:18;;;;;;;3.13;1.03;;;;;;;24.40;37.81;102372.03;5008703;28;20029;-90
2022/07/16 11:23:50;;;;;;;3.70;1.15;;;;;;;24.51;37.55;102384.34;5012524;28;20724;-89
2022/07/16 11:26:16;;;;;;;5.90;1.10;;;;;;;24.40;38.17;102369.31;5013029;28;20473;-90
2022/07/16 11:29:02;;;;;;;2.30;1.40;;;;;;;24.15;37.69;102388.84;5012684;28;20291;-88
2022/07/16 11:31:30;;;;;;;2.42;1.40;;;;;;;24.30;37.61;102368.44;5001722;28;20026;-88
2022/07/16 11:34:07;;;;;;;1.67;1.17;;;;;;;24.82;37.91;102372.56;5012900;28;20092;-89
2022/07/16 11:36:35;;;;;;;4.55;1.55;;;;;;;25.15;36.39;102369.38;5001966;28;20404;-89
2022/07/16 11:39:08;;;;;;;3.45;1.40;;;;;;;25.46;35.18;102375.91;5010537;28;20045;-89
2022/07/16 11:41:35;;;;;;;2.38;1.48;;;;;;;25.54;35.72;102381.38;5013349;28;20106;-90
2022/07/16 11:44:18;;;;;;;4.85;1.40;;;;;;;25.40;35.70;102378.75;5013067;28;20022;-88
2022/07/16 11:46:50;;;;;;;7.18;1.50;;;;;;;24.38;36.56;102385.25;5011899;28;20033;-89
2022/07/16 11:49:25;;;;;;;5.28;1.40;;;;;;;24.12;37.31;102384.00;5012600;28;20593;-88
2022/07/16 11:51:53;;;;;;;3.03;1.30;;;;;;;23.81;38.29;102383.91;5012685;28;20029;-88
2022/07/16 11:54:19;;;;;;;4.53;1.30;;;;;;;23.53;38.00;102386.75;5003475;28;20301;-88
2022/07/16 11:56:44;;;;;;;4.30;1.10;;;;;;;23.58;38.29;102386.63;5011814;28;20026;-89
2022/07/16 11:59:25;;;;;;;2.30;1.10;;;;;;;23.78;37.56;102388.09;5011170;28;20050;-88
2022/07/16 12:02:05;;;;;;;4.82;1.48;;;;;;;23.80;38.10;102383.13;5010302;28;20125;-88
2022/07/16 12:04:42;;;;;;;4.15;1.27;;;;;;;23.98;37.49;102389.53;5011322;28;20030;-88
2022/07/16 12:07:10;;;;;;;3.97;1.30;;;;;;;24.35;36.59;102378.47;5011781;28;20115;-87
2022/07/16 12:09:40;;;;;;;5.35;1.48;;;;;;;25.10;35.51;102370.34;5011033;28;20030;-90
2022/07/16 12:15:15;;;;;;;7.22;1.42;;;;;;;24.59;35.64;102380.84;4999061;28;20107;-86
2022/07/16 12:17:46;;;;;;;3.00;1.10;;;;;;;24.23;35.87;102372.75;5011414;28;20022;-88
2022/07/16 12:20:27;;;;;;;4.20;1.30;;;;;;;24.41;35.33;102384.63;4990041;28;20319;-87
2022/07/16 12:23:39;;;;;;;2.88;1.35;;;;;;;24.25;35.26;102376.00;5005602;28;20030;-90
2022/07/16 12:26:05;;;;;;;6.53;1.42;;;;;;;24.39;34.76;102367.69;5012609;28;20076;-89
2022/07/16 12:28:31;;;;;;;6.32;1.42;;;;;;;24.60;35.79;102370.66;5010483;28;20042;-89
2022/07/16 12:31:23;;;;;;;4.53;1.30;;;;;;;24.75;34.68;102364.78;5014925;28;20022;-91
2022/07/16 12:33:56;;;;;;;5.00;1.85;;;;;;;24.28;35.55;102387.16;5018891;28;20038;-95
2022/07/16 12:36:32;;;;;;;6.43;1.50;;;;;;;24.02;36.42;102389.69;5019566;28;20042;-95